Time;durP1;ratioP1;P1;durP2;ratioP2;P2;SDS_P1;SDS_P2;PMS_P1;PMS_P2;Temp;Humidity;BMP_temperature;BMP_pressure;BME280_temperature;BME280_humidity;BME280_pressure;Samples;Min_cycle;Max_cycle;Signal;HPM_P1;HPM_P2
2021/09/06 00:01:38;;;;;;;11.87;10.70;;;19.10;99.90;;;;;;5073430;28;20150;-82
2021/09/06 00:04:04;;;;;;;13.70;10.57;;;19.10;99.90;;;;;;5074081;28;20166;-82
2021/09/06 00:06:30;;;;;;;12.87;11.07;;;19.10;99.90;;;;;;5055965;28;20181;-82
2021/09/06 00:08:56;;;;;;;13.53;10.97;;;19.00;99.90;;;;;;5072992;28;20185;-82
2021/09/06 00:11:22;;;;;;;13.40;10.87;;;19.00;99.90;;;;;;5071088;28;20598;-82
2021/09/06 00:13:50;;;;;;;13.83;11.67;;;19.00;99.90;;;;;;5066886;28;20165;-82
2021/09/06 00:16:16;;;;;;;11.30;10.10;;;19.00;99.90;;;;;;5065786;28;20642;-82
2021/09/06 00:18:42;;;;;;;14.23;12.40;;;19.00;99.90;;;;;;5068776;28;20631;-82
2021/09/06 00:21:08;;;;;;;13.40;10.63;;;18.90;99.90;;;;;;5047021;28;20586;-82
2021/09/06 00:23:34;;;;;;;12.20;11.00;;;18.90;99.90;;;;;;5063525;28;20215;-82
2021/09/06 00:26:01;;;;;;;12.43;11.13;;;18.90;99.90;;;;;;5062895;28;20165;-82
2021/09/06 00:28:27;;;;;;;12.30;10.50;;;18.90;99.90;;;;;;5047403;28;20607;-82
2021/09/06 00:30:54;;;;;;;11.30;10.10;;;18.80;99.90;;;;;;5047177;28;20779;-82
2021/09/06 00:33:20;;;;;;;11.43;10.33;;;18.80;99.90;;;;;;5065216;28;20597;-82
2021/09/06 00:35:46;;;;;;;13.87;12.47;;;18.80;99.90;;;;;;5047746;28;21240;-82
2021/09/06 00:38:12;;;;;;;13.40;11.40;;;18.80;99.90;;;;;;5067013;28;20591;-82
2021/09/06 00:40:38;;;;;;;13.43;11.90;;;18.70;99.90;;;;;;5075353;28;20674;-82
2021/09/06 00:43:04;;;;;;;12.93;11.30;;;18.70;99.90;;;;;;5053142;28;20575;-82
2021/09/06 00:45:29;;;;;;;10.97;9.80;;;18.70;99.90;;;;;;5050247;28;20165;-82
2021/09/06 00:47:55;;;;;;;11.93;10.77;;;18.70;99.90;;;;;;5048521;28;20201;-82
2021/09/06 00:50:22;;;;;;;14.80;12.40;;;18.70;99.90;;;;;;5067125;28;20567;-82
2021/09/06 00:52:48;;;;;;;12.50;11.20;;;18.60;99.90;;;;;;5051285;28;20683;-82
2021/09/06 00:55:15;;;;;;;12.70;11.40;;;18.60;99.90;;;;;;5066703;28;20223;-82
2021/09/06 00:57:43;;;;;;;12.67;10.93;;;18.60;99.90;;;;;;5064184;28;20626;-82
2021/09/06 01:00:11;;;;;;;12.30;11.00;;;18.60;99.90;;;;;;5062283;28;20571;-82
2021/09/06 01:02:37;;;;;;;12.63;10.87;;;18.60;99.90;;;;;;5064843;28;21122;-81
2021/09/06 01:05:04;;;;;;;12.33;11.07;;;18.50;99.90;;;;;;5065931;28;20977;-81
2021/09/06 01:07:53;;;;;;;12.03;10.73;;;18.50;99.90;;;;;;5050324;28;20598;-82
2021/09/06 01:10:39;;;;;;;11.30;10.20;;;18.50;99.90;;;;;;5033757;28;20576;-81
2021/09/06 01:13:21;;;;;;;12.50;11.20;;;18.50;99.90;;;;;;5048157;28;20568;-81
2021/09/06 01:15:47;;;;;;;11.60;10.20;;;18.40;99.90;;;;;;5066287;28;20559;-82
2021/09/06 01:18:13;;;;;;;12.13;10.90;;;18.40;99.90;;;;;;5047743;28;20591;-82
2021/09/06 01:20:41;;;;;;;12.70;11.50;;;18.40;99.90;;;;;;5047273;28;20622;-82
2021/09/06 01:23:09;;;;;;;12.90;11.60;;;18.40;99.90;;;;;;5049546;28;20571;-82
2021/09/06 01:25:58;;;;;;;12.70;11.20;;;18.30;99.90;;;;;;5046825;28;20188;-82
2021/09/06 01:28:24;;;;;;;11.73;10.40;;;18.30;99.90;;;;;;5072211;28;20607;-82
2021/09/06 01:30:51;;;;;;;13.27;11.20;;;18.30;99.90;;;;;;5056883;28;20169;-82
2021/09/06 01:33:18;;;;;;;11.33;10.20;;;18.30;99.90;;;;;;5054792;28;20564;-82
2021/09/06 01:35:44;;;;;;;12.43;11.13;;;18.30;99.90;;;;;;5055885;28;20563;-82
2021/09/06 01:38:10;;;;;;;11.53;10.33;;;18.30;99.90;;;;;;5069443;28;20645;-82
2021/09/06 01:40:35;;;;;;;12.10;10.90;;;18.20;99.90;;;;;;5054798;28;20574;-82
2021/09/06 01:43:02;;;;;;;12.90;11.60;;;18.30;99.90;;;;;;5075577;28;20175;-82
2021/09/06 01:45:28;;;;;;;12.00;10.77;;;18.20;99.90;;;;;;5039327;28;20567;-82
2021/09/06 01:47:54;;;;;;;13.07;10.80;;;18.20;99.90;;;;;;5037723;28;20602;-81
2021/09/06 01:50:20;;;;;;;11.80;10.60;;;18.20;99.90;;;;;;5057186;28;20193;-82
2021/09/06 01:52:52;;;;;;;11.37;10.17;;;18.20;99.90;;;;;;5057086;28;20587;-82
2021/09/06 01:55:18;;;;;;;12.30;10.90;;;18.10;99.90;;;;;;5056275;28;20655;-82
2021/09/06 01:57:48;;;;;;;12.93;11.53;;;18.10;99.90;;;;;;5053788;28;20615;-82
2021/09/06 02:00:19;;;;;;;11.03;9.93;;;18.10;99.90;;;;;;5054060;28;20674;-82
2021/09/06 02:02:45;;;;;;;12.10;10.90;;;18.10;99.90;;;;;;5055112;28;20582;-82
2021/09/06 02:05:15;;;;;;;12.73;11.47;;;18.00;99.90;;;;;;5056137;28;20590;-82
2021/09/06 02:07:48;;;;;;;12.20;10.90;;;18.00;99.90;;;;;;5055101;28;20582;-82
2021/09/06 02:10:14;;;;;;;13.70;10.77;;;18.00;99.90;;;;;;5053445;28;20733;-82
2021/09/06 02:12:42;;;;;;;13.67;10.30;;;18.00;99.90;;;;;;5046290;28;20635;-82
2021/09/06 02:15:12;;;;;;;12.27;10.97;;;18.00;99.90;;;;;;5026499;28;20576;-82
2021/09/06 02:17:38;;;;;;;12.03;10.43;;;17.90;99.90;;;;;;5030518;28;20731;-82
2021/09/06 02:20:05;;;;;;;12.43;11.13;;;17.90;99.90;;;;;;5056071;28;20714;-82
2021/09/06 02:22:31;;;;;;;13.40;10.43;;;17.90;99.90;;;;;;5076017;28;20574;-82
2021/09/06 02:25:00;;;;;;;11.37;10.17;;;17.90;99.90;;;;;;5047718;28;20595;-82
2021/09/06 02:27:31;;;;;;;12.40;10.90;;;17.90;99.90;;;;;;5051819;28;20593;-82
2021/09/06 02:30:00;;;;;;;12.30;11.10;;;17.90;99.90;;;;;;5040067;28;20600;-82
2021/09/06 02:32:28;;;;;;;11.93;10.83;;;17.90;99.90;;;;;;5047947;28;20590;-82
2021/09/06 02:35:06;;;;;;;12.93;11.50;;;17.90;99.90;;;;;;5054205;28;20590;-82
2021/09/06 02:37:32;;;;;;;10.47;9.47;;;17.90;99.90;;;;;;5020699;28;20636;-82
2021/09/06 02:39:58;;;;;;;13.80;10.53;;;17.80;99.90;;;;;;5035936;28;20723;-82
2021/09/06 02:42:24;;;;;;;12.80;10.60;;;17.80;99.90;;;;;;5046597;28;20877;-82
2021/09/06 02:44:53;;;;;;;12.33;11.13;;;17.80;99.90;;;;;;5049094;28;20716;-82
2021/09/06 02:47:19;;;;;;;11.13;10.03;;;17.80;99.90;;;;;;5039700;28;20599;-81
2021/09/06 02:49:45;;;;;;;13.30;10.97;;;17.80;99.90;;;;;;5058338;28;20599;-82
2021/09/06 02:52:17;;;;;;;11.70;10.50;;;17.80;99.90;;;;;;5053173;28;20169;-82
2021/09/06 02:54:43;;;;;;;10.93;9.70;;;17.80;99.90;;;;;;5067373;28;20607;-82
2021/09/06 02:57:09;;;;;;;12.43;11.23;;;17.80;99.90;;;;;;5050559;28;20211;-82
2021/09/06 02:59:35;;;;;;;12.33;10.27;;;17.70;99.90;;;;;;5050009;28;20220;-82
2021/09/06 03:02:00;;;;;;;11.67;10.50;;;17.70;99.90;;;;;;5024905;28;20660;-82
2021/09/06 03:04:28;;;;;;;11.37;10.20;;;17.70;99.90;;;;;;5037248;28;20248;-82
2021/09/06 03:06:54;;;;;;;10.63;9.63;;;17.70;99.90;;;;;;5034205;28;20596;-82
2021/09/06 03:09:21;;;;;;;12.17;10.93;;;17.80;99.90;;;;;;5051258;28;20615;-82
2021/09/06 03:11:47;;;;;;;10.43;9.40;;;17.70;99.90;;;;;;5054878;28;20623;-82
2021/09/06 03:14:14;;;;;;;10.50;9.47;;;17.70;99.90;;;;;;5056046;28;20599;-82
2021/09/06 03:16:39;;;;;;;10.97;9.13;;;17.70;99.90;;;;;;5050169;28;20682;-82
2021/09/06 03:19:05;;;;;;;11.10;10.00;;;17.70;99.90;;;;;;5053498;28;20623;-82
2021/09/06 03:21:38;;;;;;;11.03;9.83;;;17.70;99.90;;;;;;5036741;28;20188;-82
2021/09/06 03:24:08;;;;;;;9.93;9.00;;;17.70;99.90;;;;;;5037382;28;20579;-82
2021/09/06 03:26:33;;;;;;;10.30;9.30;;;17.70;99.90;;;;;;5035484;28;20580;-82
2021/09/06 03:28:59;;;;;;;13.47;9.80;;;17.60;99.90;;;;;;5017782;28;20623;-82
2021/09/06 03:31:25;;;;;;;11.80;10.50;;;17.70;99.90;;;;;;5035476;28;20193;-82
2021/09/06 03:33:54;;;;;;;10.70;9.70;;;17.60;99.90;;;;;;5035816;28;20181;-81
2021/09/06 03:36:20;;;;;;;11.87;10.67;;;17.60;99.90;;;;;;5036655;28;20680;-82
2021/09/06 03:38:46;;;;;;;12.10;9.63;;;17.60;99.90;;;;;;5036336;28;20632;-82
2021/09/06 03:41:12;;;;;;;11.77;10.23;;;17.60;99.90;;;;;;5036012;28;20598;-82
2021/09/06 03:43:40;;;;;;;10.50;9.40;;;17.60;99.90;;;;;;5035692;28;20587;-82
2021/09/06 03:46:06;;;;;;;11.23;10.13;;;17.60;99.90;;;;;;5038068;28;20644;-82
2021/09/06 03:48:33;;;;;;;9.97;9.07;;;17.60;99.90;;;;;;5036623;28;20198;-79
2021/09/06 03:51:04;;;;;;;11.03;9.87;;;17.60;99.90;;;;;;5039769;28;20553;-79
2021/09/06 03:53:30;;;;;;;10.33;9.33;;;17.60;99.90;;;;;;5039543;28;20588;-79
2021/09/06 03:55:56;;;;;;;11.23;9.20;;;17.60;99.90;;;;;;5042817;28;20596;-79
2021/09/06 03:58:22;;;;;;;11.63;10.47;;;17.60;99.90;;;;;;5043224;28;20616;-79
2021/09/06 04:00:48;;;;;;;11.00;9.90;;;17.60;99.90;;;;;;5041694;28;20656;-79
2021/09/06 04:03:17;;;;;;;10.63;9.60;;;17.60;99.90;;;;;;5043227;28;20153;-79
2021/09/06 04:05:42;;;;;;;11.10;9.53;;;17.60;99.90;;;;;;5043745;28;20592;-79
2021/09/06 04:08:10;;;;;;;11.20;10.00;;;17.60;99.90;;;;;;5042854;28;20596;-79
2021/09/06 04:10:36;;;;;;;12.00;10.30;;;17.60;99.90;;;;;;5043525;28;20645;-79
2021/09/06 04:13:02;;;;;;;11.37;10.27;;;17.60;99.90;;;;;;5043196;28;20178;-79
2021/09/06 04:15:28;;;;;;;10.57;9.10;;;17.60;99.90;;;;;;5043145;28;20565;-79
2021/09/06 04:17:55;;;;;;;10.53;9.53;;;17.60;99.90;;;;;;5042732;28;20635;-79
2021/09/06 04:20:21;;;;;;;10.73;9.50;;;17.60;99.90;;;;;;5043152;28;20645;-79
2021/09/06 04:22:48;;;;;;;12.67;10.03;;;17.60;99.90;;;;;;5042618;28;20594;-79
2021/09/06 04:25:16;;;;;;;9.80;8.80;;;17.60;99.90;;;;;;5026827;28;20644;-79
2021/09/06 04:27:41;;;;;;;10.67;9.57;;;17.60;99.90;;;;;;5059602;28;20591;-79
2021/09/06 04:30:13;;;;;;;10.73;9.63;;;17.60;99.90;;;;;;5043399;28;20173;-79
2021/09/06 04:32:39;;;;;;;10.43;9.43;;;17.60;99.90;;;;;;5026526;28;20623;-79
2021/09/06 04:35:05;;;;;;;14.00;11.07;;;17.60;99.90;;;;;;5026618;28;20592;-79
2021/09/06 04:37:33;;;;;;;9.93;8.90;;;17.50;99.90;;;;;;5059343;28;20190;-80
2021/09/06 04:40:03;;;;;;;10.80;9.37;;;17.50;99.90;;;;;;5058961;28;20602;-80
2021/09/06 04:42:32;;;;;;;11.00;9.87;;;17.60;99.90;;;;;;5059055;28;20587;-80
2021/09/06 04:44:59;;;;;;;11.27;10.20;;;17.60;99.90;;;;;;5059239;28;20690;-79
2021/09/06 04:47:26;;;;;;;9.90;8.90;;;17.60;99.90;;;;;;5025638;28;20584;-79
2021/09/06 04:49:52;;;;;;;11.10;10.00;;;17.60;99.90;;;;;;5039850;28;20673;-79
2021/09/06 04:52:21;;;;;;;10.30;9.30;;;17.60;99.90;;;;;;5042729;28;20572;-79
2021/09/06 04:54:47;;;;;;;10.40;9.40;;;17.60;99.90;;;;;;5042353;28;20618;-79
2021/09/06 04:57:13;;;;;;;11.47;9.40;;;17.60;99.90;;;;;;5036248;28;20206;-79
2021/09/06 04:59:39;;;;;;;9.47;8.50;;;17.70;99.90;;;;;;5033524;28;20193;-78
2021/09/06 05:02:04;;;;;;;11.60;9.83;;;17.70;99.90;;;;;;5054787;28;20605;-78
2021/09/06 05:04:32;;;;;;;9.90;9.00;;;17.60;99.90;;;;;;5038313;28;20184;-79
2021/09/06 05:06:57;;;;;;;10.90;9.90;;;17.70;99.90;;;;;;5055836;28;20572;-79
2021/09/06 05:09:23;;;;;;;10.10;9.10;;;17.70;99.90;;;;;;5055419;28;20263;-79
2021/09/06 05:11:51;;;;;;;11.10;10.10;;;17.70;99.90;;;;;;5035829;28;20193;-79
2021/09/06 05:14:17;;;;;;;11.53;9.70;;;17.70;99.90;;;;;;5036320;28;20568;-79
2021/09/06 05:16:43;;;;;;;13.63;10.50;;;17.80;99.90;;;;;;5018654;28;20635;-79
2021/09/06 05:19:09;;;;;;;10.33;9.33;;;17.80;99.90;;;;;;5018360;28;20193;-78
2021/09/06 05:21:35;;;;;;;10.43;9.43;;;17.80;99.90;;;;;;5035896;28;20634;-79
2021/09/06 05:24:03;;;;;;;11.33;10.23;;;17.80;99.90;;;;;;5033175;28;20588;-79
2021/09/06 05:26:29;;;;;;;11.47;10.27;;;17.90;99.90;;;;;;5033466;28;20588;-78
2021/09/06 05:28:55;;;;;;;11.17;10.00;;;17.90;99.90;;;;;;5031277;28;20604;-78
2021/09/06 05:31:22;;;;;;;11.10;10.00;;;17.90;99.90;;;;;;5020421;28;20584;-78
2021/09/06 05:33:47;;;;;;;11.77;10.60;;;17.90;99.90;;;;;;5040504;28;20575;-79
2021/09/06 05:36:15;;;;;;;11.67;10.47;;;17.90;99.90;;;;;;5038661;28;20197;-80
2021/09/06 05:38:42;;;;;;;11.27;10.17;;;17.90;99.90;;;;;;5019747;28;20196;-79
2021/09/06 05:41:35;;;;;;;13.73;9.93;;;17.90;99.90;;;;;;5036883;28;20580;-79
2021/09/06 05:44:05;;;;;;;12.20;11.00;;;18.00;99.90;;;;;;5035968;28;20599;-79
2021/09/06 05:46:32;;;;;;;12.00;10.83;;;18.00;99.90;;;;;;5035319;28;20628;-79
2021/09/06 05:49:00;;;;;;;12.33;10.23;;;18.00;99.90;;;;;;5034405;28;20620;-80
2021/09/06 05:51:28;;;;;;;11.00;9.57;;;18.00;99.90;;;;;;5034345;28;20602;-80
2021/09/06 05:54:20;;;;;;;11.93;10.57;;;18.00;99.90;;;;;;5047118;28;20631;-80
2021/09/06 05:56:46;;;;;;;11.57;10.47;;;18.10;99.90;;;;;;5034228;28;20639;-80
2021/09/06 05:59:17;;;;;;;11.33;10.33;;;18.20;99.90;;;;;;5034632;28;20178;-80
2021/09/06 06:01:43;;;;;;;12.30;11.00;;;18.20;99.90;;;;;;5019649;28;20576;-78
2021/09/06 06:04:09;;;;;;;12.43;11.13;;;18.30;99.90;;;;;;5017931;28;20308;-78
2021/09/06 06:06:37;;;;;;;12.20;11.00;;;18.30;99.90;;;;;;5019187;28;20541;-78
2021/09/06 06:09:04;;;;;;;10.67;9.60;;;18.30;99.90;;;;;;5018664;28;20620;-79
2021/09/06 06:11:32;;;;;;;11.20;10.20;;;18.40;99.90;;;;;;5019034;28;20596;-79
2021/09/06 06:13:57;;;;;;;12.27;11.07;;;18.40;99.90;;;;;;5018521;28;20957;-79
2021/09/06 06:16:24;;;;;;;11.87;10.10;;;18.50;99.90;;;;;;5024343;28;20716;-79
2021/09/06 06:18:52;;;;;;;12.10;10.90;;;18.50;99.90;;;;;;5030089;28;20604;-79
2021/09/06 06:21:20;;;;;;;12.07;10.87;;;18.60;99.90;;;;;;5031062;28;20576;-79
2021/09/06 06:24:08;;;;;;;11.07;9.67;;;18.60;99.90;;;;;;5028049;28;20591;-79
2021/09/06 06:26:47;;;;;;;10.80;9.73;;;18.70;99.90;;;;;;5052140;28;20532;-80
2021/09/06 06:29:13;;;;;;;10.43;9.43;;;18.80;99.90;;;;;;5033476;28;20619;-80
2021/09/06 06:31:41;;;;;;;11.47;10.20;;;19.00;99.90;;;;;;5035731;28;20204;-80
2021/09/06 06:34:08;;;;;;;10.37;9.37;;;19.10;99.90;;;;;;5055930;28;20568;-79
2021/09/06 06:36:36;;;;;;;13.63;11.07;;;19.20;99.90;;;;;;5022565;28;20631;-80
2021/09/06 06:39:03;;;;;;;11.23;10.13;;;19.30;99.90;;;;;;5039169;28;20620;-80
2021/09/06 06:41:29;;;;;;;11.47;10.37;;;19.50;99.90;;;;;;5039757;28;20185;-80
2021/09/06 06:44:04;;;;;;;10.73;9.73;;;19.60;99.90;;;;;;5040358;28;20564;-80
2021/09/06 06:46:31;;;;;;;10.23;9.20;;;19.70;99.90;;;;;;5038314;28;20588;-81
2021/09/06 06:48:57;;;;;;;11.73;10.53;;;20.10;99.90;;;;;;5056376;28;20636;-80
2021/09/06 06:51:25;;;;;;;13.87;10.47;;;20.70;99.90;;;;;;5039962;28;20703;-80
2021/09/06 06:53:51;;;;;;;10.53;9.50;;;21.50;99.90;;;;;;5057310;28;20591;-80
2021/09/06 06:56:20;;;;;;;9.33;8.03;;;22.40;99.90;;;;;;5038170;28;20608;-78
2021/09/06 06:58:46;;;;;;;12.40;8.87;;;23.30;99.90;;;;;;5039922;28;20642;-77
2021/09/06 07:01:15;;;;;;;10.10;9.10;;;24.20;99.90;;;;;;5023052;28;20595;-78
2021/09/06 07:03:45;;;;;;;9.33;8.43;;;25.10;99.90;;;;;;5039835;28;20621;-79
2021/09/06 07:06:11;;;;;;;9.20;8.37;;;25.70;99.90;;;;;;5039389;28;20580;-78
2021/09/06 07:08:39;;;;;;;9.43;8.53;;;26.40;99.90;;;;;;5023339;28;20601;-78
2021/09/06 07:11:05;;;;;;;9.13;8.33;;;26.90;99.90;;;;;;5039618;28;20607;-78
2021/09/06 07:13:31;;;;;;;8.20;7.50;;;27.60;99.90;;;;;;5039388;28;20168;-78
2021/09/06 07:15:57;;;;;;;9.77;8.87;;;28.10;99.90;;;;;;5040011;28;20569;-78
2021/09/06 07:18:24;;;;;;;9.77;8.83;;;28.70;99.90;;;;;;5040252;28;20817;-78
2021/09/06 07:20:50;;;;;;;9.20;8.30;;;29.20;99.90;;;;;;5023276;28;20587;-79
2021/09/06 07:23:16;;;;;;;11.53;8.67;;;29.70;99.90;;;;;;5023318;28;20158;-78
2021/09/06 07:25:42;;;;;;;8.67;7.80;;;30.10;99.90;;;;;;5040041;28;20162;-79
2021/09/06 07:28:11;;;;;;;9.30;8.40;;;30.70;99.90;;;;;;5007455;28;20246;-78
2021/09/06 07:30:37;;;;;;;8.40;7.40;;;31.20;99.90;;;;;;5040037;28;20592;-78
2021/09/06 07:33:06;;;;;;;9.20;8.23;;;31.50;99.90;;;;;;5006627;28;20592;-78
2021/09/06 07:35:32;;;;;;;9.80;8.20;;;31.70;99.90;;;;;;5056189;28;20172;-78
2021/09/06 07:37:59;;;;;;;8.97;8.27;;;32.10;99.90;;;;;;5039598;28;20642;-78
2021/09/06 07:40:27;;;;;;;11.53;8.00;;;32.70;99.90;;;;;;5039708;28;20578;-78
2021/09/06 07:42:53;;;;;;;8.67;7.87;;;33.20;99.90;;;;;;5022771;28;20603;-78
2021/09/06 07:45:19;;;;;;;9.33;8.37;;;33.80;99.90;;;;;;5039782;28;20144;-78
2021/09/06 07:47:46;;;;;;;10.40;8.90;;;34.30;99.90;;;;;;5021495;28;20596;-79
2021/09/06 07:50:19;;;;;;;9.33;7.90;;;34.70;99.30;;;;;;5039744;28;20557;-78
2021/09/06 07:52:46;;;;;;;9.03;8.13;;;35.20;97.90;;;;;;5022636;28;20676;-78
2021/09/06 07:55:13;;;;;;;8.90;8.10;;;35.40;95.70;;;;;;5040037;28;20621;-78
2021/09/06 07:57:38;;;;;;;8.40;7.70;;;35.70;94.50;;;;;;5023143;28;20658;-79
2021/09/06 08:00:05;;;;;;;8.87;8.00;;;35.50;92.60;;;;;;5023272;28;20604;-79
2021/09/06 08:02:52;;;;;;;9.33;8.47;;;35.70;91.80;;;;;;5056623;28;20366;-79
2021/09/06 08:05:28;;;;;;;9.20;8.33;;;36.00;91.30;;;;;;5040369;28;20584;-79
2021/09/06 08:07:58;;;;;;;9.67;8.80;;;36.40;90.30;;;;;;5007534;28;20615;-79
2021/09/06 08:10:24;;;;;;;9.60;8.67;;;36.60;88.00;;;;;;5039877;28;20572;-79
2021/09/06 08:12:50;;;;;;;8.83;7.87;;;36.70;84.50;;;;;;5040139;28;20162;-79
2021/09/06 08:15:17;;;;;;;8.30;7.60;;;37.00;83.60;;;;;;5039854;28;20579;-78
2021/09/06 08:17:43;;;;;;;7.87;7.17;;;37.30;82.20;;;;;;5039258;28;20895;-79
2021/09/06 08:20:14;;;;;;;9.70;8.70;;;37.50;80.20;;;;;;5036866;28;20580;-79
2021/09/06 08:22:42;;;;;;;8.37;7.67;;;37.70;76.80;;;;;;5022416;28;20174;-79
2021/09/06 08:25:10;;;;;;;8.40;7.70;;;37.80;75.90;;;;;;5039039;28;20664;-79
2021/09/06 08:27:37;;;;;;;8.13;7.53;;;38.00;74.20;;;;;;5039346;28;20651;-79
2021/09/06 08:30:04;;;;;;;8.83;8.03;;;38.30;72.80;;;;;;5039359;28;20581;-79
2021/09/06 08:32:30;;;;;;;8.60;8.00;;;38.60;71.10;;;;;;5056065;28;20603;-79
2021/09/06 08:34:58;;;;;;;8.63;8.00;;;38.90;69.80;;;;;;5038865;28;20656;-79
2021/09/06 08:37:24;;;;;;;9.63;8.63;;;39.10;68.20;;;;;;5023068;28;20177;-79
2021/09/06 08:39:51;;;;;;;8.73;7.93;;;39.20;66.50;;;;;;5039519;28;20604;-79
2021/09/06 08:42:18;;;;;;;9.33;8.43;;;39.50;64.80;;;;;;5043036;28;20166;-79
2021/09/06 08:44:46;;;;;;;9.00;8.10;;;39.50;62.90;;;;;;5043101;28;20595;-79
2021/09/06 08:47:16;;;;;;;8.63;7.83;;;39.70;62.30;;;;;;5042213;28;20627;-79
2021/09/06 08:49:45;;;;;;;8.93;8.13;;;40.00;61.00;;;;;;5040332;28;20616;-79
2021/09/06 08:52:12;;;;;;;8.33;7.60;;;40.10;59.60;;;;;;5042580;28;20606;-79
2021/09/06 08:54:37;;;;;;;8.73;8.00;;;40.30;58.80;;;;;;5042133;28;20588;-79
2021/09/06 08:57:04;;;;;;;8.83;8.13;;;40.30;57.40;;;;;;5041407;28;20600;-79
2021/09/06 08:59:30;;;;;;;8.73;8.03;;;40.00;56.60;;;;;;5023838;28;20181;-79
2021/09/06 09:02:09;;;;;;;9.60;8.60;;;40.00;55.90;;;;;;5039089;28;20567;-79
2021/09/06 09:04:45;;;;;;;8.73;7.93;;;39.60;55.40;;;;;;5039395;28;20591;-79
2021/09/06 09:07:27;;;;;;;9.33;8.37;;;39.60;55.40;;;;;;5039744;28;20703;-79
2021/09/06 09:10:33;;;;;;;8.27;7.57;;;39.90;54.60;;;;;;5058015;28;20596;-79
2021/09/06 09:13:17;;;;;;;7.90;7.20;;;40.20;54.90;;;;;;5038132;28;20588;-76
2021/09/06 09:16:12;;;;;;;8.17;7.57;;;40.40;54.80;;;;;;4977224;28;20595;-78
2021/09/06 09:19:13;;;;;;;8.83;8.10;;;40.80;54.60;;;;;;5043086;28;20711;-79
2021/09/06 09:22:06;;;;;;;8.67;7.93;;;41.00;53.50;;;;;;5032091;28;20564;-80
2021/09/06 09:25:02;;;;;;;8.00;7.40;;;41.10;51.90;;;;;;5033797;28;20576;-80
2021/09/06 09:27:53;;;;;;;7.47;6.87;;;41.20;51.60;;;;;;5052035;28;20675;-80
2021/09/06 09:30:33;;;;;;;8.40;7.70;;;41.40;51.90;;;;;;5037153;28;20579;-79
2021/09/06 09:33:28;;;;;;;8.63;7.07;;;41.50;51.70;;;;;;5032382;28;20585;-79
2021/09/06 09:36:34;;;;;;;8.33;7.57;;;41.90;52.30;;;;;;5017200;28;21144;-80
2021/09/06 09:39:05;;;;;;;7.73;6.97;;;42.20;51.20;;;;;;5031873;28;20631;-80
2021/09/06 09:41:31;;;;;;;7.87;7.20;;;42.20;47.70;;;;;;5051690;28;20571;-80
2021/09/06 09:44:20;;;;;;;8.07;7.33;;;42.00;48.20;;;;;;5031505;28;20592;-80
2021/09/06 09:47:03;;;;;;;8.77;8.07;;;41.90;44.90;;;;;;5031418;28;20195;-79
2021/09/06 09:49:32;;;;;;;7.80;7.17;;;41.60;46.80;;;;;;5025451;28;20628;-81
2021/09/06 09:51:58;;;;;;;7.23;6.70;;;41.60;46.90;;;;;;5022994;28;20925;-81
2021/09/06 09:54:26;;;;;;;8.23;7.53;;;41.50;46.50;;;;;;5041916;28;20587;-81
2021/09/06 09:56:53;;;;;;;7.63;7.03;;;41.40;46.40;;;;;;5040904;28;20695;-81
2021/09/06 09:59:20;;;;;;;8.17;7.40;;;41.40;46.60;;;;;;5007332;28;20616;-81
2021/09/06 10:02:13;;;;;;;8.70;7.97;;;41.50;46.20;;;;;;5004637;28;20577;-81
2021/09/06 10:04:48;;;;;;;8.07;7.47;;;41.60;46.30;;;;;;5019945;28;21147;-81
2021/09/06 10:07:15;;;;;;;8.53;7.80;;;41.50;45.60;;;;;;4989024;28;20624;-81
2021/09/06 10:09:42;;;;;;;8.83;8.07;;;41.10;44.80;;;;;;5039417;28;20946;-81
2021/09/06 10:12:10;;;;;;;8.87;8.17;;;40.70;44.60;;;;;;5028351;28;20568;-81
2021/09/06 10:14:48;;;;;;;8.47;7.70;;;40.60;44.80;;;;;;5052324;28;20663;-81
2021/09/06 10:17:14;;;;;;;8.77;7.83;;;40.70;45.80;;;;;;5028527;28;20685;-81
2021/09/06 10:19:53;;;;;;;8.07;7.47;;;40.80;46.00;;;;;;5014394;28;20592;-82
2021/09/06 10:22:25;;;;;;;8.00;7.40;;;41.10;45.30;;;;;;5054408;28;20581;-82
2021/09/06 10:25:02;;;;;;;7.87;7.07;;;41.20;44.90;;;;;;5049548;28;20604;-82
2021/09/06 10:27:29;;;;;;;8.60;7.90;;;41.40;45.20;;;;;;5010735;28;20727;-81
2021/09/06 10:30:06;;;;;;;8.33;7.57;;;41.50;44.50;;;;;;5045683;28;20634;-81
2021/09/06 10:32:47;;;;;;;7.67;7.03;;;41.50;44.10;;;;;;5017774;28;20631;-81
2021/09/06 10:35:20;;;;;;;9.13;8.23;;;41.40;44.10;;;;;;5030650;28;20579;-80
2021/09/06 10:38:01;;;;;;;7.87;7.27;;;41.20;44.20;;;;;;5021862;28;20576;-81
2021/09/06 10:40:30;;;;;;;8.33;6.93;;;41.00;44.40;;;;;;5036858;28;20568;-80
2021/09/06 10:42:56;;;;;;;8.30;7.60;;;40.90;44.40;;;;;;5037972;28;20592;-80
2021/09/06 10:45:25;;;;;;;7.53;6.93;;;40.70;44.10;;;;;;5036227;28;20584;-80
2021/09/06 10:48:00;;;;;;;8.37;7.57;;;40.40;44.10;;;;;;5052722;28;20639;-80
2021/09/06 10:50:28;;;;;;;9.70;8.13;;;40.30;44.30;;;;;;5044247;28;20590;-80
2021/09/06 10:52:55;;;;;;;10.63;8.43;;;40.20;44.30;;;;;;5038270;28;20572;-81
2021/09/06 10:55:23;;;;;;;8.17;7.47;;;40.00;43.90;;;;;;5039050;28;20556;-79
2021/09/06 10:57:49;;;;;;;8.20;7.50;;;39.90;44.00;;;;;;5027097;28;20588;-80
2021/09/06 11:00:23;;;;;;;8.43;7.73;;;39.70;43.60;;;;;;5028742;28;20676;-80
2021/09/06 11:02:53;;;;;;;8.53;7.83;;;39.50;43.80;;;;;;5047297;28;20651;-80
2021/09/06 11:05:24;;;;;;;8.53;7.83;;;39.40;44.00;;;;;;5023253;28;20583;-80
2021/09/06 11:08:02;;;;;;;10.60;9.70;;;39.20;44.10;;;;;;5047087;28;20638;-81
2021/09/06 11:10:30;;;;;;;9.70;8.90;;;39.10;44.10;;;;;;5029390;28;20660;-80
2021/09/06 11:12:58;;;;;;;10.93;10.03;;;39.00;44.30;;;;;;5025820;28;20576;-80
2021/09/06 11:15:26;;;;;;;10.23;9.23;;;38.80;44.20;;;;;;5045062;28;20679;-80
2021/09/06 11:17:57;;;;;;;9.47;8.60;;;38.70;44.50;;;;;;5009828;28;21131;-80
2021/09/06 11:20:27;;;;;;;9.43;8.57;;;38.60;44.60;;;;;;5027582;28;20584;-80
2021/09/06 11:23:03;;;;;;;9.60;8.80;;;38.60;45.10;;;;;;5027609;28;20703;-80
2021/09/06 11:25:31;;;;;;;9.03;8.20;;;38.50;45.10;;;;;;5025900;28;20679;-80
2021/09/06 11:28:10;;;;;;;9.63;8.73;;;38.40;45.30;;;;;;5020800;28;20651;-80
2021/09/06 11:30:39;;;;;;;10.80;9.87;;;38.20;45.00;;;;;;5021970;28;20647;-80
2021/09/06 11:33:06;;;;;;;9.50;8.70;;;38.10;44.90;;;;;;5022644;28;20580;-80
2021/09/06 11:35:33;;;;;;;10.20;9.40;;;38.00;45.10;;;;;;5038190;28;20576;-80
2021/09/06 11:38:00;;;;;;;10.40;9.60;;;37.80;45.30;;;;;;5017721;28;21008;-80
2021/09/06 11:40:26;;;;;;;11.13;10.07;;;37.60;45.40;;;;;;5035776;28;20924;-80
2021/09/06 11:42:54;;;;;;;11.43;10.43;;;37.50;45.40;;;;;;5036474;28;20583;-79
2021/09/06 11:45:21;;;;;;;10.73;9.90;;;37.40;45.50;;;;;;5036150;28;20671;-80
2021/09/06 11:47:47;;;;;;;11.23;10.23;;;37.30;45.40;;;;;;5015863;28;20720;-80
2021/09/06 11:50:15;;;;;;;10.70;9.90;;;37.20;45.80;;;;;;5015276;28;20955;-80
2021/09/06 11:52:44;;;;;;;12.27;11.17;;;37.00;45.80;;;;;;5034706;28;20584;-79
2021/09/06 11:55:15;;;;;;;12.17;10.97;;;36.90;45.80;;;;;;5021190;28;20929;-80
2021/09/06 11:57:42;;;;;;;12.57;11.40;;;36.80;46.00;;;;;;5036331;28;20623;-80
2021/09/06 12:00:09;;;;;;;12.00;11.10;;;36.60;45.70;;;;;;5055624;28;20599;-80
2021/09/06 12:02:52;;;;;;;11.63;10.53;;;36.30;45.80;;;;;;4995767;28;20601;-80
2021/09/06 12:05:19;;;;;;;11.03;10.07;;;35.90;45.90;;;;;;4966224;28;20581;-79
2021/09/06 12:07:50;;;;;;;13.23;11.70;;;35.60;46.00;;;;;;4722671;29;20662;-79
2021/09/06 12:10:25;;;;;;;13.33;12.07;;;35.20;46.30;;;;;;4653503;30;20626;-79
2021/09/06 12:14:47;;;;;;;12.30;10.97;;;34.90;46.80;;;;;;5153968;27;20708;-80
2021/09/06 12:17:14;;;;;;;13.73;12.43;;;34.50;47.40;;;;;;5131167;27;20696;-80
2021/09/06 12:19:45;;;;;;;15.07;13.67;;;34.30;48.10;;;;;;5070107;28;21245;-80
2021/09/06 12:22:20;;;;;;;11.83;10.73;;;34.20;48.50;;;;;;5030849;28;20608;-80
2021/09/06 12:24:48;;;;;;;13.47;12.17;;;34.10;49.10;;;;;;4928035;28;20617;-80
2021/09/06 12:27:17;;;;;;;12.60;10.60;;;34.00;48.60;;;;;;4748614;29;20608;-80
2021/09/06 12:29:44;;;;;;;12.10;10.77;;;34.00;48.90;;;;;;4376222;31;20674;-80
2021/09/06 12:32:19;;;;;;;12.43;11.23;;;34.00;49.50;;;;;;3948331;34;20677;-79
2021/09/06 12:36:42;;;;;;;11.87;10.87;;;34.00;49.50;;;;;;5154708;27;20714;-80
2021/09/06 12:39:11;;;;;;;11.77;10.47;;;34.00;49.40;;;;;;5088228;28;20634;-81
2021/09/06 12:41:37;;;;;;;12.60;11.40;;;34.00;49.50;;;;;;5090942;28;20628;-81
2021/09/06 12:44:03;;;;;;;10.90;9.80;;;33.90;49.50;;;;;;5059955;28;22246;-80
2021/09/06 12:46:28;;;;;;;12.47;11.17;;;33.80;49.60;;;;;;5036655;28;20184;-81
2021/09/06 12:48:54;;;;;;;10.07;9.07;;;33.90;49.80;;;;;;4899662;29;20269;-80
2021/09/06 12:51:20;;;;;;;10.40;9.50;;;33.80;49.90;;;;;;4836639;29;20196;-80